sensor_id;sensor_type;location;lat;lon;timestamp;pressure;altitude;pressure_sealevel;temperature;humidity
47815;BME280;33579;50.058;18.130;2023-10-08T00:00:11;98959.38;;;17.71;100.00
47815;BME280;33579;50.058;18.130;2023-10-08T00:01:12;98961.03;;;17.72;100.00
47815;BME280;33579;50.058;18.130;2023-10-08T00:02:14;98960.19;;;17.72;100.00
47815;BME280;33579;50.058;18.130;2023-10-08T00:03:16;98956.09;;;17.69;100.00
47815;BME280;33579;50.058;18.130;2023-10-08T00:04:18;98955.88;;;17.70;100.00
47815;BME280;33579;50.058;18.130;2023-10-08T00:05:20;98954.06;;;17.71;100.00
47815;BME280;33579;50.058;18.130;2023-10-08T00:06:21;98954.13;;;17.78;100.00
47815;BME280;33579;50.058;18.130;2023-10-08T00:07:23;98959.63;;;17.76;100.00
47815;BME280;33579;50.058;18.130;2023-10-08T00:08:25;98959.00;;;17.74;100.00
47815;BME280;33579;50.058;18.130;2023-10-08T00:09:26;98961.66;;;17.74;100.00
47815;BME280;33579;50.058;18.130;2023-10-08T00:10:28;98963.50;;;17.74;100.00
47815;BME280;33579;50.058;18.130;2023-10-08T00:11:29;98965.78;;;17.77;100.00
47815;BME280;33579;50.058;18.130;2023-10-08T00:12:31;98962.94;;;17.78;100.00
47815;BME280;33579;50.058;18.130;2023-10-08T00:13:33;98966.44;;;17.79;100.00
47815;BME280;33579;50.058;18.130;2023-10-08T00:14:35;98968.63;;;17.75;100.00
47815;BME280;33579;50.058;18.130;2023-10-08T00:15:37;98967.63;;;17.76;100.00
47815;BME280;33579;50.058;18.130;2023-10-08T00:16:38;98962.75;;;17.80;100.00
47815;BME280;33579;50.058;18.130;2023-10-08T00:17:40;98974.66;;;17.84;100.00
47815;BME280;33579;50.058;18.130;2023-10-08T00:18:43;98967.06;;;17.81;100.00
47815;BME280;33579;50.058;18.130;2023-10-08T00:19:44;98961.28;;;17.77;100.00
47815;BME280;33579;50.058;18.130;2023-10-08T00:20:46;98967.63;;;17.76;100.00
47815;BME280;33579;50.058;18.130;2023-10-08T00:21:48;98957.63;;;17.78;100.00
47815;BME280;33579;50.058;18.130;2023-10-08T00:22:49;98958.81;;;17.76;100.00
47815;BME280;33579;50.058;18.130;2023-10-08T00:23:51;98961.47;;;17.76;100.00
47815;BME280;33579;50.058;18.130;2023-10-08T00:24:52;98950.22;;;17.74;100.00
47815;BME280;33579;50.058;18.130;2023-10-08T00:25:54;98962.22;;;17.69;100.00
47815;BME280;33579;50.058;18.130;2023-10-08T00:26:56;98962.03;;;17.71;100.00
47815;BME280;33579;50.058;18.130;2023-10-08T00:27:58;98956.34;;;17.74;100.00
47815;BME280;33579;50.058;18.130;2023-10-08T00:29:01;98959.56;;;17.69;100.00
47815;BME280;33579;50.058;18.130;2023-10-08T00:30:04;98953.50;;;17.76;100.00
47815;BME280;33579;50.058;18.130;2023-10-08T00:31:05;98950.91;;;17.82;100.00
47815;BME280;33579;50.058;18.130;2023-10-08T00:32:07;98959.91;;;17.81;100.00
47815;BME280;33579;50.058;18.130;2023-10-08T00:33:09;98960.28;;;17.78;100.00
47815;BME280;33579;50.058;18.130;2023-10-08T00:34:11;98958.19;;;17.74;100.00
47815;BME280;33579;50.058;18.130;2023-10-08T00:35:13;98957.00;;;17.61;100.00
47815;BME280;33579;50.058;18.130;2023-10-08T00:36:15;98950.47;;;17.64;100.00
47815;BME280;33579;50.058;18.130;2023-10-08T00:37:17;98947.00;;;17.63;100.00
47815;BME280;33579;50.058;18.130;2023-10-08T00:38:18;98950.47;;;17.64;100.00
47815;BME280;33579;50.058;18.130;2023-10-08T00:39:20;98950.47;;;17.64;100.00
47815;BME280;33579;50.058;18.130;2023-10-08T00:40:22;98950.22;;;17.59;100.00
47815;BME280;33579;50.058;18.130;2023-10-08T00:41:24;98940.03;;;17.62;100.00
47815;BME280;33579;50.058;18.130;2023-10-08T00:42:25;98936.84;;;17.67;100.00
47815;BME280;33579;50.058;18.130;2023-10-08T00:43:31;98936.06;;;17.73;100.00
47815;BME280;33579;50.058;18.130;2023-10-08T00:44:34;98929.19;;;17.79;100.00
47815;BME280;33579;50.058;18.130;2023-10-08T00:45:36;98922.38;;;17.76;100.00
47815;BME280;33579;50.058;18.130;2023-10-08T00:46:39;98924.78;;;17.71;100.00
47815;BME280;33579;50.058;18.130;2023-10-08T00:47:41;98931.06;;;17.63;100.00
47815;BME280;33579;50.058;18.130;2023-10-08T00:48:43;98934.50;;;17.64;100.00
47815;BME280;33579;50.058;18.130;2023-10-08T00:49:44;98942.50;;;17.64;100.00
47815;BME280;33579;50.058;18.130;2023-10-08T00:50:46;98938.28;;;17.69;100.00
47815;BME280;33579;50.058;18.130;2023-10-08T00:51:50;98937.16;;;17.79;100.00
47815;BME280;33579;50.058;18.130;2023-10-08T00:52:52;98939.25;;;17.83;100.00
47815;BME280;33579;50.058;18.130;2023-10-08T00:53:56;98935.13;;;17.81;100.00
47815;BME280;33579;50.058;18.130;2023-10-08T00:54:59;98931.66;;;17.80;100.00
47815;BME280;33579;50.058;18.130;2023-10-08T00:56:00;98937.16;;;17.79;100.00
47815;BME280;33579;50.058;18.130;2023-10-08T00:57:02;98943.66;;;17.76;100.00
47815;BME280;33579;50.058;18.130;2023-10-08T00:58:05;98933.16;;;17.68;100.00
47815;BME280;33579;50.058;18.130;2023-10-08T00:59:06;98932.94;;;17.69;100.00
47815;BME280;33579;50.058;18.130;2023-10-08T01:00:08;98931.50;;;17.67;100.00
47815;BME280;33579;50.058;18.130;2023-10-08T01:01:10;98939.84;;;17.64;100.00
47815;BME280;33579;50.058;18.130;2023-10-08T01:02:12;98927.38;;;17.64;100.00
47815;BME280;33579;50.058;18.130;2023-10-08T01:03:14;98934.97;;;17.67;100.00
47815;BME280;33579;50.058;18.130;2023-10-08T01:04:20;98931.31;;;17.68;100.00
47815;BME280;33579;50.058;18.130;2023-10-08T01:05:21;98928.63;;;17.68;100.00
47815;BME280;33579;50.058;18.130;2023-10-08T01:06:23;98925.97;;;17.68;100.00
47815;BME280;33579;50.058;18.130;2023-10-08T01:07:26;98931.50;;;17.67;100.00
47815;BME280;33579;50.058;18.130;2023-10-08T01:08:29;98926.81;;;17.69;100.00
47815;BME280;33579;50.058;18.130;2023-10-08T01:09:30;98935.59;;;17.69;100.00
47815;BME280;33579;50.058;18.130;2023-10-08T01:10:32;98927.63;;;17.69;100.00
47815;BME280;33579;50.058;18.130;2023-10-08T01:11:33;98926.19;;;17.67;100.00
47815;BME280;33579;50.058;18.130;2023-10-08T01:12:35;98925.59;;;17.72;100.00
47815;BME280;33579;50.058;18.130;2023-10-08T01:13:37;98921.75;;;17.74;100.00
47815;BME280;33579;50.058;18.130;2023-10-08T01:14:38;98919.84;;;17.68;100.00
47815;BME280;33579;50.058;18.130;2023-10-08T01:15:40;98920.88;;;17.67;100.00
47815;BME280;33579;50.058;18.130;2023-10-08T01:16:42;98918.56;;;17.64;100.00
47815;BME280;33579;50.058;18.130;2023-10-08T01:17:43;98918.22;;;17.67;100.00
47815;BME280;33579;50.058;18.130;2023-10-08T01:18:46;98914.59;;;17.75;100.00
47815;BME280;33579;50.058;18.130;2023-10-08T01:19:48;98906.41;;;17.76;100.00
47815;BME280;33579;50.058;18.130;2023-10-08T01:20:50;98910.56;;;17.79;100.00
47815;BME280;33579;50.058;18.130;2023-10-08T01:21:51;98907.63;;;17.74;100.00
47815;BME280;33579;50.058;18.130;2023-10-08T01:22:53;98907.81;;;17.72;100.00
47815;BME280;33579;50.058;18.130;2023-10-08T01:23:55;98911.50;;;17.71;100.00
47815;BME280;33579;50.058;18.130;2023-10-08T01:24:56;98911.50;;;17.71;100.00
47815;BME280;33579;50.058;18.130;2023-10-08T01:25:58;98911.03;;;17.67;100.00
47815;BME280;33579;50.058;18.130;2023-10-08T01:26:59;98908.38;;;17.67;100.00
47815;BME280;33579;50.058;18.130;2023-10-08T01:28:01;98910.22;;;17.67;100.00
47815;BME280;33579;50.058;18.130;2023-10-08T01:29:02;98912.69;;;17.68;100.00
47815;BME280;33579;50.058;18.130;2023-10-08T01:30:05;98917.00;;;17.69;100.00
47815;BME280;33579;50.058;18.130;2023-10-08T01:31:06;98905.09;;;17.65;100.00
47815;BME280;33579;50.058;18.130;2023-10-08T01:32:09;98905.63;;;17.61;100.00
47815;BME280;33579;50.058;18.130;2023-10-08T01:33:10;98910.16;;;17.60;100.00
47815;BME280;33579;50.058;18.130;2023-10-08T01:34:12;98911.78;;;17.61;100.00
47815;BME280;33579;50.058;18.130;2023-10-08T01:35:13;98916.91;;;17.63;100.00
47815;BME280;33579;50.058;18.130;2023-10-08T01:36:16;98911.25;;;17.66;100.00
47815;BME280;33579;50.058;18.130;2023-10-08T01:37:18;98906.66;;;17.60;100.00
47815;BME280;33579;50.058;18.130;2023-10-08T01:38:20;98916.38;;;17.52;100.00
47815;BME280;33579;50.058;18.130;2023-10-08T01:39:22;98908.03;;;17.55;100.00
47815;BME280;33579;50.058;18.130;2023-10-08T01:40:23;98907.03;;;17.56;100.00
47815;BME280;33579;50.058;18.130;2023-10-08T01:41:25;98911.34;;;17.58;100.00
47815;BME280;33579;50.058;18.130;2023-10-08T01:42:26;98912.44;;;17.63;100.00
47815;BME280;33579;50.058;18.130;2023-10-08T01:43:28;98914.06;;;17.64;100.00
47815;BME280;33579;50.058;18.130;2023-10-08T01:44:30;98909.13;;;17.61;100.00
47815;BME280;33579;50.058;18.130;2023-10-08T01:45:35;98908.28;;;17.61;100.00
47815;BME280;33579;50.058;18.130;2023-10-08T01:46:37;98914.88;;;17.65;100.00
47815;BME280;33579;50.058;18.130;2023-10-08T01:47:39;98916.56;;;17.66;100.00
47815;BME280;33579;50.058;18.130;2023-10-08T01:48:41;98917.06;;;17.76;100.00
47815;BME280;33579;50.058;18.130;2023-10-08T01:49:44;98921.09;;;17.87;100.00
47815;BME280;33579;50.058;18.130;2023-10-08T01:50:46;98915.19;;;17.92;100.00
47815;BME280;33579;50.058;18.130;2023-10-08T01:51:48;98924.44;;;17.96;100.00
47815;BME280;33579;50.058;18.130;2023-10-08T01:52:51;98927.94;;;17.96;100.00
47815;BME280;33579;50.058;18.130;2023-10-08T01:53:54;98935.72;;;17.98;100.00
47815;BME280;33579;50.058;18.130;2023-10-08T01:54:56;98930.72;;;17.88;100.00
47815;BME280;33579;50.058;18.130;2023-10-08T01:55:57;98917.97;;;17.83;100.00
47815;BME280;33579;50.058;18.130;2023-10-08T01:56:59;98912.59;;;17.77;100.00
47815;BME280;33579;50.058;18.130;2023-10-08T01:58:01;98921.75;;;17.74;100.00
47815;BME280;33579;50.058;18.130;2023-10-08T01:59:02;98919.94;;;17.75;100.00
47815;BME280;33579;50.058;18.130;2023-10-08T02:00:05;98924.63;;;17.73;100.00
47815;BME280;33579;50.058;18.130;2023-10-08T02:01:12;98923.78;;;17.72;100.00
47815;BME280;33579;50.058;18.130;2023-10-08T02:02:14;98919.66;;;17.69;100.00
47815;BME280;33579;50.058;18.130;2023-10-08T02:03:16;98926.75;;;17.62;100.00
47815;BME280;33579;50.058;18.130;2023-10-08T02:04:18;98923.44;;;17.60;100.00
47815;BME280;33579;50.058;18.130;2023-10-08T02:05:20;98926.84;;;17.54;100.00
47815;BME280;33579;50.058;18.130;2023-10-08T02:06:21;98930.50;;;17.53;100.00
47815;BME280;33579;50.058;18.130;2023-10-08T02:07:23;98938.78;;;17.43;100.00
47815;BME280;33579;50.058;18.130;2023-10-08T02:08:25;98933.56;;;17.35;100.00
47815;BME280;33579;50.058;18.130;2023-10-08T02:09:27;98952.06;;;17.28;100.00
47815;BME280;33579;50.058;18.130;2023-10-08T02:10:28;98956.94;;;17.24;100.00
47815;BME280;33579;50.058;18.130;2023-10-08T02:11:30;98948.47;;;17.21;100.00
47815;BME280;33579;50.058;18.130;2023-10-08T02:12:31;98956.03;;;17.17;100.00
47815;BME280;33579;50.058;18.130;2023-10-08T02:13:33;98953.81;;;17.06;100.00
47815;BME280;33579;50.058;18.130;2023-10-08T02:14:35;98959.47;;;17.03;100.00
47815;BME280;33579;50.058;18.130;2023-10-08T02:15:40;98958.91;;;16.92;100.00
47815;BME280;33579;50.058;18.130;2023-10-08T02:16:45;98962.53;;;16.91;100.00
47815;BME280;33579;50.058;18.130;2023-10-08T02:17:46;98970.72;;;16.90;100.00
47815;BME280;33579;50.058;18.130;2023-10-08T02:18:48;98970.22;;;16.86;100.00
47815;BME280;33579;50.058;18.130;2023-10-08T02:19:52;98969.75;;;16.82;100.00
47815;BME280;33579;50.058;18.130;2023-10-08T02:20:54;98973.78;;;16.78;100.00
47815;BME280;33579;50.058;18.130;2023-10-08T02:21:56;98980.16;;;16.69;100.00
47815;BME280;33579;50.058;18.130;2023-10-08T02:22:58;98972.28;;;16.61;100.00
47815;BME280;33579;50.058;18.130;2023-10-08T02:24:00;98984.66;;;16.45;100.00
47815;BME280;33579;50.058;18.130;2023-10-08T02:25:01;98985.91;;;16.34;100.00
47815;BME280;33579;50.058;18.130;2023-10-08T02:26:03;98981.25;;;16.13;100.00
47815;BME280;33579;50.058;18.130;2023-10-08T02:27:05;98986.59;;;16.05;100.00
47815;BME280;33579;50.058;18.130;2023-10-08T02:28:07;98988.00;;;15.92;100.00
47815;BME280;33579;50.058;18.130;2023-10-08T02:29:09;98997.94;;;15.90;100.00
47815;BME280;33579;50.058;18.130;2023-10-08T02:30:11;99007.03;;;15.87;100.00
47815;BME280;33579;50.058;18.130;2023-10-08T02:31:13;99000.75;;;15.80;100.00
47815;BME280;33579;50.058;18.130;2023-10-08T02:32:15;99000.31;;;15.77;100.00
47815;BME280;33579;50.058;18.130;2023-10-08T02:33:16;99008.78;;;15.64;100.00
47815;BME280;33579;50.058;18.130;2023-10-08T02:34:18;99011.78;;;15.60;100.00
47815;BME280;33579;50.058;18.130;2023-10-08T02:35:20;99004.00;;;15.59;100.00
47815;BME280;33579;50.058;18.130;2023-10-08T02:36:21;99000.84;;;15.55;100.00
47815;BME280;33579;50.058;18.130;2023-10-08T02:37:23;99010.84;;;15.45;100.00
47815;BME280;33579;50.058;18.130;2023-10-08T02:38:25;99013.50;;;15.45;100.00
47815;BME280;33579;50.058;18.130;2023-10-08T02:39:26;99011.34;;;15.40;100.00
47815;BME280;33579;50.058;18.130;2023-10-08T02:40:28;99014.16;;;15.30;100.00
47815;BME280;33579;50.058;18.130;2023-10-08T02:41:29;99011.22;;;15.17;100.00
47815;BME280;33579;50.058;18.130;2023-10-08T02:42:31;99022.81;;;15.16;100.00
47815;BME280;33579;50.058;18.130;2023-10-08T02:43:33;99016.72;;;15.15;100.00
47815;BME280;33579;50.058;18.130;2023-10-08T02:44:35;99019.16;;;15.17;100.00
47815;BME280;33579;50.058;18.130;2023-10-08T02:45:37;99016.22;;;15.12;100.00
47815;BME280;33579;50.058;18.130;2023-10-08T02:46:42;99019.84;;;15.11;100.00
47815;BME280;33579;50.058;18.130;2023-10-08T02:47:44;99022.66;;;15.09;100.00
47815;BME280;33579;50.058;18.130;2023-10-08T02:48:46;99020.19;;;15.08;100.00
47815;BME280;33579;50.058;18.130;2023-10-08T02:49:48;99022.69;;;15.01;100.00
47815;BME280;33579;50.058;18.130;2023-10-08T02:50:49;99029.47;;;14.95;100.00
47815;BME280;33579;50.058;18.130;2023-10-08T02:51:53;99042.56;;;14.88;100.00
47815;BME280;33579;50.058;18.130;2023-10-08T02:52:55;99040.41;;;14.84;100.00
47815;BME280;33579;50.058;18.130;2023-10-08T02:53:56;99041.69;;;14.80;100.00
47815;BME280;33579;50.058;18.130;2023-10-08T02:54:58;99041.22;;;14.76;100.00
47815;BME280;33579;50.058;18.130;2023-10-08T02:55:59;99049.00;;;14.78;100.00
47815;BME280;33579;50.058;18.130;2023-10-08T02:57:02;99051.81;;;14.76;100.00
47815;BME280;33579;50.058;18.130;2023-10-08T02:58:03;99058.25;;;14.73;100.00
47815;BME280;33579;50.058;18.130;2023-10-08T02:59:05;99064.69;;;14.71;100.00
47815;BME280;33579;50.058;18.130;2023-10-08T03:00:07;99069.81;;;14.64;100.00
47815;BME280;33579;50.058;18.130;2023-10-08T03:01:09;99072.97;;;14.68;100.00
47815;BME280;33579;50.058;18.130;2023-10-08T03:02:12;99079.38;;;14.57;100.00
47815;BME280;33579;50.058;18.130;2023-10-08T03:03:17;99088.94;;;14.41;100.00
47815;BME280;33579;50.058;18.130;2023-10-08T03:04:19;99091.53;;;14.25;100.00
47815;BME280;33579;50.058;18.130;2023-10-08T03:05:21;99096.78;;;14.16;100.00
47815;BME280;33579;50.058;18.130;2023-10-08T03:06:23;99097.44;;;14.10;100.00
47815;BME280;33579;50.058;18.130;2023-10-08T03:07:25;99108.44;;;13.97;100.00
47815;BME280;33579;50.058;18.130;2023-10-08T03:08:27;99106.28;;;13.93;100.00
47815;BME280;33579;50.058;18.130;2023-10-08T03:09:28;99119.81;;;13.89;100.00
47815;BME280;33579;50.058;18.130;2023-10-08T03:10:30;99118.09;;;13.80;100.00
47815;BME280;33579;50.058;18.130;2023-10-08T03:11:32;99129.94;;;13.68;100.00
47815;BME280;33579;50.058;18.130;2023-10-08T03:12:33;99132.06;;;13.64;100.00
47815;BME280;33579;50.058;18.130;2023-10-08T03:13:35;99137.50;;;13.62;100.00
47815;BME280;33579;50.058;18.130;2023-10-08T03:14:37;99126.94;;;13.62;100.00
47815;BME280;33579;50.058;18.130;2023-10-08T03:15:42;99134.81;;;13.54;100.00
47815;BME280;33579;50.058;18.130;2023-10-08T03:16:43;99137.75;;;13.51;100.00
47815;BME280;33579;50.058;18.130;2023-10-08T03:17:45;99138.06;;;13.48;100.00
47815;BME280;33579;50.058;18.130;2023-10-08T03:18:47;99144.56;;;13.35;100.00
47815;BME280;33579;50.058;18.130;2023-10-08T03:19:48;99151.19;;;13.21;100.00
47815;BME280;33579;50.058;18.130;2023-10-08T03:20:50;99143.41;;;13.20;100.00
47815;BME280;33579;50.058;18.130;2023-10-08T03:21:52;99140.78;;;13.20;100.00
47815;BME280;33579;50.058;18.130;2023-10-08T03:22:53;99123.81;;;13.23;100.00
47815;BME280;33579;50.058;18.130;2023-10-08T03:23:55;99122.00;;;13.23;100.00
47815;BME280;33579;50.058;18.130;2023-10-08T03:24:56;99128.94;;;13.24;100.00
47815;BME280;33579;50.058;18.130;2023-10-08T03:25:59;99136.88;;;13.24;100.00
47815;BME280;33579;50.058;18.130;2023-10-08T03:27:01;99143.94;;;13.24;100.00
47815;BME280;33579;50.058;18.130;2023-10-08T03:28:03;99148.78;;;13.28;100.00
47815;BME280;33579;50.058;18.130;2023-10-08T03:29:05;99150.97;;;13.33;100.00
47815;BME280;33579;50.058;18.130;2023-10-08T03:30:08;99147.03;;;13.37;100.00
47815;BME280;33579;50.058;18.130;2023-10-08T03:31:10;99158.28;;;13.39;100.00
47815;BME280;33579;50.058;18.130;2023-10-08T03:32:12;99157.59;;;13.37;100.00
47815;BME280;33579;50.058;18.130;2023-10-08T03:33:18;99157.59;;;13.37;100.00
47815;BME280;33579;50.058;18.130;2023-10-08T03:34:19;99158.59;;;13.36;100.00
47815;BME280;33579;50.058;18.130;2023-10-08T03:35:21;99164.41;;;13.40;100.00
47815;BME280;33579;50.058;18.130;2023-10-08T03:36:23;99162.38;;;13.33;100.00
47815;BME280;33579;50.058;18.130;2023-10-08T03:37:24;99153.09;;;13.29;100.00
47815;BME280;33579;50.058;18.130;2023-10-08T03:38:26;99162.00;;;13.28;100.00
47815;BME280;33579;50.058;18.130;2023-10-08T03:39:30;99152.09;;;13.30;100.00
47815;BME280;33579;50.058;18.130;2023-10-08T03:40:31;99153.09;;;13.29;100.00
47815;BME280;33579;50.058;18.130;2023-10-08T03:41:33;99150.13;;;13.32;100.00
47815;BME280;33579;50.058;18.130;2023-10-08T03:42:34;99151.63;;;13.35;100.00
47815;BME280;33579;50.058;18.130;2023-10-08T03:43:36;99156.13;;;13.34;100.00
47815;BME280;33579;50.058;18.130;2023-10-08T03:44:38;99164.41;;;13.40;100.00
47815;BME280;33579;50.058;18.130;2023-10-08T03:45:39;99158.59;;;13.36;100.00
47815;BME280;33579;50.058;18.130;2023-10-08T03:46:41;99168.34;;;13.35;100.00
47815;BME280;33579;50.058;18.130;2023-10-08T03:47:43;99172.41;;;13.30;100.00
47815;BME280;33579;50.058;18.130;2023-10-08T03:48:44;99177.63;;;13.21;100.00
47815;BME280;33579;50.058;18.130;2023-10-08T03:49:46;99175.06;;;13.12;100.00
47815;BME280;33579;50.058;18.130;2023-10-08T03:50:48;99178.28;;;13.05;100.00
47815;BME280;33579;50.058;18.130;2023-10-08T03:51:51;99185.16;;;12.98;100.00
47815;BME280;33579;50.058;18.130;2023-10-08T03:52:53;99185.00;;;13.00;100.00
47815;BME280;33579;50.058;18.130;2023-10-08T03:53:54;99183.88;;;13.02;100.00
47815;BME280;33579;50.058;18.130;2023-10-08T03:54:56;99175.41;;;12.99;100.00
47815;BME280;33579;50.058;18.130;2023-10-08T03:55:58;99173.31;;;13.02;100.00
47815;BME280;33579;50.058;18.130;2023-10-08T03:56:59;99181.09;;;13.04;100.00
47815;BME280;33579;50.058;18.130;2023-10-08T03:58:01;99177.69;;;12.93;100.00
47815;BME280;33579;50.058;18.130;2023-10-08T03:59:03;99182.00;;;12.95;100.00
47815;BME280;33579;50.058;18.130;2023-10-08T04:00:06;99183.03;;;13.02;100.00
47815;BME280;33579;50.058;18.130;2023-10-08T04:01:12;99189.22;;;12.92;100.00
47815;BME280;33579;50.058;18.130;2023-10-08T04:02:14;99190.28;;;13.00;100.00
47815;BME280;33579;50.058;18.130;2023-10-08T04:03:16;99192.16;;;12.89;100.00
47815;BME280;33579;50.058;18.130;2023-10-08T04:04:18;99197.19;;;12.83;100.00
47815;BME280;33579;50.058;18.130;2023-10-08T04:05:23;99197.69;;;12.68;100.00
47815;BME280;33579;50.058;18.130;2023-10-08T04:06:26;99205.03;;;12.74;100.00
47815;BME280;33579;50.058;18.130;2023-10-08T04:07:28;99204.13;;;12.84;100.00
47815;BME280;33579;50.058;18.130;2023-10-08T04:08:30;99198.41;;;12.88;100.00
47815;BME280;33579;50.058;18.130;2023-10-08T04:09:31;99199.63;;;12.94;100.00
47815;BME280;33579;50.058;18.130;2023-10-08T04:10:34;99197.28;;;12.91;100.00
47815;BME280;33579;50.058;18.130;2023-10-08T04:11:37;99205.06;;;12.92;100.00
47815;BME280;33579;50.058;18.130;2023-10-08T04:12:39;99204.53;;;12.89;100.00
47815;BME280;33579;50.058;18.130;2023-10-08T04:13:41;99208.53;;;12.93;100.00
47815;BME280;33579;50.058;18.130;2023-10-08T04:14:42;99221.38;;;12.88;100.00
47815;BME280;33579;50.058;18.130;2023-10-08T04:15:44;99221.91;;;12.91;100.00
47815;BME280;33579;50.058;18.130;2023-10-08T04:16:46;99222.34;;;12.87;100.00
47815;BME280;33579;50.058;18.130;2023-10-08T04:17:48;99233.34;;;12.82;100.00
47815;BME280;33579;50.058;18.130;2023-10-08T04:18:49;99249.19;;;12.82;100.00
47815;BME280;33579;50.058;18.130;2023-10-08T04:19:51;99262.13;;;12.75;100.00
47815;BME280;33579;50.058;18.130;2023-10-08T04:20:53;99261.97;;;12.77;100.00
47815;BME280;33579;50.058;18.130;2023-10-08T04:21:55;99257.28;;;12.71;100.00
47815;BME280;33579;50.058;18.130;2023-10-08T04:22:57;99258.56;;;12.67;100.00
47815;BME280;33579;50.058;18.130;2023-10-08T04:24:00;99259.94;;;12.71;100.00
47815;BME280;33579;50.058;18.130;2023-10-08T04:25:01;99261.59;;;12.72;100.00
47815;BME280;33579;50.058;18.130;2023-10-08T04:26:03;99256.44;;;12.70;100.00
47815;BME280;33579;50.058;18.130;2023-10-08T04:27:05;99261.47;;;12.73;100.00
47815;BME280;33579;50.058;18.130;2023-10-08T04:28:06;99264.38;;;12.70;100.00
47815;BME280;33579;50.058;18.130;2023-10-08T04:29:08;99271.59;;;12.68;100.00
47815;BME280;33579;50.058;18.130;2023-10-08T04:30:10;99275.09;;;12.59;100.00
47815;BME280;33579;50.058;18.130;2023-10-08T04:31:12;99277.75;;;12.59;100.00
47815;BME280;33579;50.058;18.130;2023-10-08T04:32:13;99267.50;;;12.56;100.00
47815;BME280;33579;50.058;18.130;2023-10-08T04:33:15;99265.81;;;12.55;100.00
47815;BME280;33579;50.058;18.130;2023-10-08T04:34:17;99271.69;;;12.48;100.00
47815;BME280;33579;50.058;18.130;2023-10-08T04:35:18;99279.75;;;12.47;100.00
47815;BME280;33579;50.058;18.130;2023-10-08T04:36:20;99277.09;;;12.47;100.00
47815;BME280;33579;50.058;18.130;2023-10-08T04:37:22;99288.63;;;12.46;100.00
47815;BME280;33579;50.058;18.130;2023-10-08T04:38:25;99302.25;;;12.41;100.00
47815;BME280;33579;50.058;18.130;2023-10-08T04:39:27;99307.16;;;12.36;100.00
47815;BME280;33579;50.058;18.130;2023-10-08T04:40:29;99306.03;;;12.29;100.00
47815;BME280;33579;50.058;18.130;2023-10-08T04:41:30;99309.66;;;12.28;100.00
47815;BME280;33579;50.058;18.130;2023-10-08T04:42:32;99297.00;;;12.31;100.00
47815;BME280;33579;50.058;18.130;2023-10-08T04:43:34;99303.78;;;12.34;100.00
47815;BME280;33579;50.058;18.130;2023-10-08T04:44:36;99317.16;;;12.32;100.00
47815;BME280;33579;50.058;18.130;2023-10-08T04:45:38;99317.16;;;12.32;100.00
47815;BME280;33579;50.058;18.130;2023-10-08T04:46:41;99332.97;;;12.32;100.00
47815;BME280;33579;50.058;18.130;2023-10-08T04:47:43;99335.06;;;12.29;100.00
47815;BME280;33579;50.058;18.130;2023-10-08T04:48:48;99329.91;;;12.27;100.00
47815;BME280;33579;50.058;18.130;2023-10-08T04:49:50;99331.56;;;12.28;100.00
47815;BME280;33579;50.058;18.130;2023-10-08T04:50:52;99338.81;;;12.26;100.00
47815;BME280;33579;50.058;18.130;2023-10-08T04:52:00;99340.06;;;12.22;100.00
47815;BME280;33579;50.058;18.130;2023-10-08T04:53:02;99347.56;;;12.17;100.00
47815;BME280;33579;50.058;18.130;2023-10-08T04:54:04;99340.34;;;12.09;100.00
47815;BME280;33579;50.058;18.130;2023-10-08T04:55:05;99346.06;;;12.04;100.00
47815;BME280;33579;50.058;18.130;2023-10-08T04:56:08;99356.44;;;11.96;100.00
47815;BME280;33579;50.058;18.130;2023-10-08T04:57:10;99350.59;;;11.92;100.00
47815;BME280;33579;50.058;18.130;2023-10-08T04:58:12;99352.25;;;11.93;100.00
47815;BME280;33579;50.058;18.130;2023-10-08T04:59:13;99347.97;;;11.92;100.00
47815;BME280;33579;50.058;18.130;2023-10-08T05:00:15;99357.69;;;11.92;100.00
47815;BME280;33579;50.058;18.130;2023-10-08T05:01:18;99363.78;;;11.92;100.00
47815;BME280;33579;50.058;18.130;2023-10-08T05:02:21;99366.69;;;11.89;100.00
47815;BME280;33579;50.058;18.130;2023-10-08T05:03:22;99377.53;;;11.86;100.00
47815;BME280;33579;50.058;18.130;2023-10-08T05:04:24;99377.09;;;11.91;100.00
47815;BME280;33579;50.058;18.130;2023-10-08T05:05:28;99383.75;;;11.85;100.00
47815;BME280;33579;50.058;18.130;2023-10-08T05:06:31;99380.41;;;11.83;100.00
47815;BME280;33579;50.058;18.130;2023-10-08T05:07:33;99376.97;;;11.83;100.00
47815;BME280;33579;50.058;18.130;2023-10-08T05:08:35;99379.03;;;11.79;100.00
47815;BME280;33579;50.058;18.130;2023-10-08T05:09:36;99389.69;;;11.77;100.00
47815;BME280;33579;50.058;18.130;2023-10-08T05:10:38;99389.56;;;11.79;100.00
47815;BME280;33579;50.058;18.130;2023-10-08T05:11:39;99385.28;;;11.78;100.00
47815;BME280;33579;50.058;18.130;2023-10-08T05:12:41;99381.09;;;11.75;100.00
47815;BME280;33579;50.058;18.130;2023-10-08T05:13:43;99381.50;;;11.71;100.00
47815;BME280;33579;50.058;18.130;2023-10-08T05:14:44;99383.59;;;11.77;100.00
47815;BME280;33579;50.058;18.130;2023-10-08T05:15:46;99382.19;;;11.73;100.00
47815;BME280;33579;50.058;18.130;2023-10-08T05:16:48;99385.56;;;11.75;100.00
47815;BME280;33579;50.058;18.130;2023-10-08T05:17:49;99384.84;;;11.73;100.00
47815;BME280;33579;50.058;18.130;2023-10-08T05:18:51;99389.41;;;11.71;100.00
47815;BME280;33579;50.058;18.130;2023-10-08T05:19:53;99389.28;;;11.72;100.00